sensor_id;sensor_type;location;lat;lon;timestamp;P1;durP1;ratioP1;P2;durP2;ratioP2
29412;SDS011;16389;50.126;8.450;2022-08-19T00:01:42;7.97;;;5.05;;
29412;SDS011;16389;50.126;8.450;2022-08-19T00:04:10;6.75;;;5.20;;
29412;SDS011;16389;50.126;8.450;2022-08-19T00:06:39;8.07;;;5.65;;
29412;SDS011;16389;50.126;8.450;2022-08-19T00:09:07;7.80;;;5.28;;
29412;SDS011;16389;50.126;8.450;2022-08-19T00:11:35;7.78;;;5.50;;
29412;SDS011;16389;50.126;8.450;2022-08-19T00:14:02;7.88;;;5.40;;
29412;SDS011;16389;50.126;8.450;2022-08-19T00:16:29;9.40;;;5.63;;
29412;SDS011;16389;50.126;8.450;2022-08-19T00:18:55;7.80;;;4.75;;
29412;SDS011;16389;50.126;8.450;2022-08-19T00:21:22;14.88;;;5.13;;
29412;SDS011;16389;50.126;8.450;2022-08-19T00:23:48;5.93;;;4.78;;
29412;SDS011;16389;50.126;8.450;2022-08-19T00:26:14;6.45;;;5.40;;
29412;SDS011;16389;50.126;8.450;2022-08-19T00:28:40;6.70;;;4.78;;
29412;SDS011;16389;50.126;8.450;2022-08-19T00:31:06;6.78;;;4.88;;
29412;SDS011;16389;50.126;8.450;2022-08-19T00:33:32;7.88;;;5.53;;
29412;SDS011;16389;50.126;8.450;2022-08-19T00:36:02;6.30;;;4.80;;
29412;SDS011;16389;50.126;8.450;2022-08-19T00:38:32;9.45;;;3.85;;
29412;SDS011;16389;50.126;8.450;2022-08-19T00:40:58;11.10;;;4.88;;
29412;SDS011;16389;50.126;8.450;2022-08-19T00:43:25;10.50;;;5.50;;
29412;SDS011;16389;50.126;8.450;2022-08-19T00:45:52;5.53;;;4.35;;
29412;SDS011;16389;50.126;8.450;2022-08-19T00:48:19;5.00;;;4.50;;
29412;SDS011;16389;50.126;8.450;2022-08-19T00:50:45;7.55;;;5.20;;
29412;SDS011;16389;50.126;8.450;2022-08-19T00:53:14;5.00;;;4.55;;
29412;SDS011;16389;50.126;8.450;2022-08-19T00:55:47;7.82;;;5.03;;
29412;SDS011;16389;50.126;8.450;2022-08-19T00:58:16;5.45;;;3.92;;
29412;SDS011;16389;50.126;8.450;2022-08-19T01:00:45;5.47;;;4.90;;
29412;SDS011;16389;50.126;8.450;2022-08-19T01:03:18;5.40;;;4.07;;
29412;SDS011;16389;50.126;8.450;2022-08-19T01:05:45;5.78;;;4.88;;
29412;SDS011;16389;50.126;8.450;2022-08-19T01:08:14;5.30;;;4.18;;
29412;SDS011;16389;50.126;8.450;2022-08-19T01:10:42;4.82;;;4.10;;
29412;SDS011;16389;50.126;8.450;2022-08-19T01:13:11;4.78;;;3.90;;
29412;SDS011;16389;50.126;8.450;2022-08-19T01:15:43;10.65;;;5.90;;
29412;SDS011;16389;50.126;8.450;2022-08-19T01:18:21;6.55;;;4.57;;
29412;SDS011;16389;50.126;8.450;2022-08-19T01:20:48;9.95;;;4.50;;
29412;SDS011;16389;50.126;8.450;2022-08-19T01:23:15;9.48;;;4.32;;
29412;SDS011;16389;50.126;8.450;2022-08-19T01:25:43;7.18;;;5.40;;
29412;SDS011;16389;50.126;8.450;2022-08-19T01:30:52;6.03;;;4.25;;
29412;SDS011;16389;50.126;8.450;2022-08-19T01:33:19;5.70;;;3.97;;
29412;SDS011;16389;50.126;8.450;2022-08-19T01:35:45;8.50;;;5.78;;
29412;SDS011;16389;50.126;8.450;2022-08-19T01:38:26;7.78;;;5.07;;
29412;SDS011;16389;50.126;8.450;2022-08-19T01:40:56;6.60;;;5.20;;
29412;SDS011;16389;50.126;8.450;2022-08-19T01:43:22;12.45;;;4.78;;
29412;SDS011;16389;50.126;8.450;2022-08-19T01:45:48;6.97;;;5.43;;
29412;SDS011;16389;50.126;8.450;2022-08-19T01:48:13;10.48;;;5.80;;
29412;SDS011;16389;50.126;8.450;2022-08-19T01:50:39;7.03;;;5.35;;
29412;SDS011;16389;50.126;8.450;2022-08-19T01:53:07;7.70;;;5.35;;
29412;SDS011;16389;50.126;8.450;2022-08-19T01:55:36;8.55;;;5.60;;
29412;SDS011;16389;50.126;8.450;2022-08-19T01:58:04;7.40;;;6.45;;
29412;SDS011;16389;50.126;8.450;2022-08-19T02:00:32;6.15;;;4.45;;
29412;SDS011;16389;50.126;8.450;2022-08-19T02:02:58;6.05;;;5.07;;
29412;SDS011;16389;50.126;8.450;2022-08-19T02:05:26;8.13;;;6.55;;
29412;SDS011;16389;50.126;8.450;2022-08-19T02:07:54;5.80;;;4.32;;
29412;SDS011;16389;50.126;8.450;2022-08-19T02:10:21;7.20;;;5.18;;
29412;SDS011;16389;50.126;8.450;2022-08-19T02:12:47;8.57;;;4.88;;
29412;SDS011;16389;50.126;8.450;2022-08-19T02:15:15;10.13;;;5.82;;
29412;SDS011;16389;50.126;8.450;2022-08-19T02:17:41;7.63;;;5.50;;
29412;SDS011;16389;50.126;8.450;2022-08-19T02:20:07;8.15;;;6.90;;
29412;SDS011;16389;50.126;8.450;2022-08-19T02:22:34;6.75;;;5.15;;
29412;SDS011;16389;50.126;8.450;2022-08-19T02:25:00;7.15;;;5.55;;
29412;SDS011;16389;50.126;8.450;2022-08-19T02:27:26;10.32;;;6.40;;
29412;SDS011;16389;50.126;8.450;2022-08-19T02:29:52;6.65;;;4.93;;
29412;SDS011;16389;50.126;8.450;2022-08-19T02:32:18;8.85;;;5.40;;
29412;SDS011;16389;50.126;8.450;2022-08-19T02:34:45;14.50;;;5.45;;
29412;SDS011;16389;50.126;8.450;2022-08-19T02:37:11;6.50;;;5.90;;
29412;SDS011;16389;50.126;8.450;2022-08-19T02:39:56;7.70;;;5.72;;
29412;SDS011;16389;50.126;8.450;2022-08-19T02:42:22;8.18;;;6.20;;
29412;SDS011;16389;50.126;8.450;2022-08-19T02:44:47;8.43;;;6.30;;
29412;SDS011;16389;50.126;8.450;2022-08-19T02:47:13;7.63;;;6.72;;
29412;SDS011;16389;50.126;8.450;2022-08-19T02:49:40;7.80;;;5.57;;
29412;SDS011;16389;50.126;8.450;2022-08-19T02:52:06;7.07;;;5.10;;
29412;SDS011;16389;50.126;8.450;2022-08-19T02:54:32;8.55;;;6.22;;
29412;SDS011;16389;50.126;8.450;2022-08-19T02:56:57;8.23;;;6.00;;
29412;SDS011;16389;50.126;8.450;2022-08-19T02:59:23;7.45;;;5.90;;
29412;SDS011;16389;50.126;8.450;2022-08-19T03:01:50;7.65;;;6.85;;
29412;SDS011;16389;50.126;8.450;2022-08-19T03:04:16;12.30;;;6.20;;
29412;SDS011;16389;50.126;8.450;2022-08-19T03:06:42;7.22;;;5.82;;
29412;SDS011;16389;50.126;8.450;2022-08-19T03:09:10;9.55;;;6.80;;
29412;SDS011;16389;50.126;8.450;2022-08-19T03:11:37;11.38;;;5.97;;
29412;SDS011;16389;50.126;8.450;2022-08-19T03:14:04;7.72;;;5.85;;
29412;SDS011;16389;50.126;8.450;2022-08-19T03:16:32;6.18;;;5.57;;
29412;SDS011;16389;50.126;8.450;2022-08-19T03:19:00;8.02;;;6.38;;
29412;SDS011;16389;50.126;8.450;2022-08-19T03:21:28;8.23;;;6.28;;
29412;SDS011;16389;50.126;8.450;2022-08-19T03:23:59;9.57;;;5.90;;
29412;SDS011;16389;50.126;8.450;2022-08-19T03:26:27;11.50;;;6.45;;
29412;SDS011;16389;50.126;8.450;2022-08-19T03:28:52;10.32;;;5.78;;
29412;SDS011;16389;50.126;8.450;2022-08-19T03:31:19;6.72;;;6.13;;
29412;SDS011;16389;50.126;8.450;2022-08-19T03:33:47;6.70;;;5.68;;
29412;SDS011;16389;50.126;8.450;2022-08-19T03:36:15;10.07;;;6.43;;
29412;SDS011;16389;50.126;8.450;2022-08-19T03:38:46;8.70;;;6.03;;
29412;SDS011;16389;50.126;8.450;2022-08-19T03:41:17;6.88;;;5.60;;
29412;SDS011;16389;50.126;8.450;2022-08-19T03:43:45;6.97;;;6.25;;
29412;SDS011;16389;50.126;8.450;2022-08-19T03:46:16;7.13;;;5.90;;
29412;SDS011;16389;50.126;8.450;2022-08-19T03:48:45;8.23;;;6.75;;
29412;SDS011;16389;50.126;8.450;2022-08-19T03:51:19;10.50;;;6.82;;
29412;SDS011;16389;50.126;8.450;2022-08-19T03:53:46;9.30;;;6.10;;
29412;SDS011;16389;50.126;8.450;2022-08-19T03:56:12;8.32;;;7.22;;
29412;SDS011;16389;50.126;8.450;2022-08-19T03:58:38;10.18;;;6.78;;
29412;SDS011;16389;50.126;8.450;2022-08-19T04:01:09;7.13;;;6.45;;
29412;SDS011;16389;50.126;8.450;2022-08-19T04:03:43;13.20;;;7.20;;
29412;SDS011;16389;50.126;8.450;2022-08-19T04:08:48;7.68;;;6.35;;
29412;SDS011;16389;50.126;8.450;2022-08-19T04:11:20;8.35;;;6.65;;
29412;SDS011;16389;50.126;8.450;2022-08-19T04:16:16;6.72;;;5.85;;
29412;SDS011;16389;50.126;8.450;2022-08-19T04:21:16;16.25;;;4.78;;
29412;SDS011;16389;50.126;8.450;2022-08-19T04:23:43;8.93;;;5.47;;
29412;SDS011;16389;50.126;8.450;2022-08-19T04:26:13;6.88;;;5.53;;
29412;SDS011;16389;50.126;8.450;2022-08-19T04:28:41;11.95;;;4.90;;
29412;SDS011;16389;50.126;8.450;2022-08-19T04:31:12;6.22;;;5.43;;
29412;SDS011;16389;50.126;8.450;2022-08-19T04:33:42;6.50;;;5.57;;
29412;SDS011;16389;50.126;8.450;2022-08-19T04:36:08;6.70;;;5.43;;
29412;SDS011;16389;50.126;8.450;2022-08-19T04:38:45;7.05;;;5.13;;
29412;SDS011;16389;50.126;8.450;2022-08-19T04:41:15;8.80;;;4.47;;
29412;SDS011;16389;50.126;8.450;2022-08-19T04:43:59;6.47;;;4.72;;
29412;SDS011;16389;50.126;8.450;2022-08-19T04:46:27;5.57;;;4.82;;
29412;SDS011;16389;50.126;8.450;2022-08-19T04:48:56;8.38;;;5.18;;
29412;SDS011;16389;50.126;8.450;2022-08-19T04:51:22;5.20;;;4.10;;
29412;SDS011;16389;50.126;8.450;2022-08-19T04:53:48;6.25;;;4.90;;
29412;SDS011;16389;50.126;8.450;2022-08-19T04:56:15;9.93;;;5.40;;
29412;SDS011;16389;50.126;8.450;2022-08-19T04:58:42;12.00;;;5.05;;
29412;SDS011;16389;50.126;8.450;2022-08-19T05:01:11;9.05;;;4.88;;
29412;SDS011;16389;50.126;8.450;2022-08-19T05:03:38;5.32;;;4.15;;
29412;SDS011;16389;50.126;8.450;2022-08-19T05:06:08;7.90;;;5.30;;
29412;SDS011;16389;50.126;8.450;2022-08-19T05:08:36;13.55;;;5.70;;
29412;SDS011;16389;50.126;8.450;2022-08-19T05:11:14;7.15;;;4.15;;
29412;SDS011;16389;50.126;8.450;2022-08-19T05:13:40;5.03;;;4.45;;
29412;SDS011;16389;50.126;8.450;2022-08-19T05:16:07;9.82;;;5.90;;
29412;SDS011;16389;50.126;8.450;2022-08-19T05:18:34;6.70;;;4.45;;
29412;SDS011;16389;50.126;8.450;2022-08-19T05:21:18;6.55;;;4.63;;
29412;SDS011;16389;50.126;8.450;2022-08-19T05:24:04;9.43;;;4.22;;
29412;SDS011;16389;50.126;8.450;2022-08-19T05:26:33;8.43;;;5.35;;
29412;SDS011;16389;50.126;8.450;2022-08-19T05:29:03;4.47;;;3.65;;
29412;SDS011;16389;50.126;8.450;2022-08-19T05:31:29;6.95;;;5.10;;
29412;SDS011;16389;50.126;8.450;2022-08-19T05:33:56;6.72;;;5.00;;
29412;SDS011;16389;50.126;8.450;2022-08-19T05:36:23;7.68;;;5.47;;
29412;SDS011;16389;50.126;8.450;2022-08-19T05:41:19;6.38;;;5.10;;
29412;SDS011;16389;50.126;8.450;2022-08-19T05:43:48;5.67;;;4.90;;
29412;SDS011;16389;50.126;8.450;2022-08-19T05:46:18;9.85;;;5.35;;
29412;SDS011;16389;50.126;8.450;2022-08-19T05:48:44;8.70;;;5.70;;
29412;SDS011;16389;50.126;8.450;2022-08-19T05:51:10;5.47;;;4.82;;
29412;SDS011;16389;50.126;8.450;2022-08-19T05:53:37;6.40;;;4.57;;
29412;SDS011;16389;50.126;8.450;2022-08-19T05:56:06;7.03;;;5.28;;
29412;SDS011;16389;50.126;8.450;2022-08-19T05:58:33;7.57;;;5.10;;
29412;SDS011;16389;50.126;8.450;2022-08-19T06:01:00;7.95;;;5.80;;
29412;SDS011;16389;50.126;8.450;2022-08-19T06:03:33;7.25;;;4.90;;
29412;SDS011;16389;50.126;8.450;2022-08-19T06:06:01;6.97;;;5.20;;
29412;SDS011;16389;50.126;8.450;2022-08-19T06:08:27;8.05;;;5.53;;
29412;SDS011;16389;50.126;8.450;2022-08-19T06:10:54;5.78;;;4.50;;
29412;SDS011;16389;50.126;8.450;2022-08-19T06:13:20;6.90;;;4.97;;
29412;SDS011;16389;50.126;8.450;2022-08-19T06:15:47;6.93;;;5.57;;
29412;SDS011;16389;50.126;8.450;2022-08-19T06:18:14;6.97;;;4.68;;
29412;SDS011;16389;50.126;8.450;2022-08-19T06:20:40;5.40;;;4.43;;
29412;SDS011;16389;50.126;8.450;2022-08-19T06:23:06;6.38;;;5.47;;
29412;SDS011;16389;50.126;8.450;2022-08-19T06:25:33;5.70;;;4.35;;
29412;SDS011;16389;50.126;8.450;2022-08-19T06:27:58;7.07;;;4.53;;
29412;SDS011;16389;50.126;8.450;2022-08-19T06:30:24;7.03;;;4.60;;
29412;SDS011;16389;50.126;8.450;2022-08-19T06:32:50;5.07;;;4.22;;
29412;SDS011;16389;50.126;8.450;2022-08-19T06:35:16;7.05;;;4.38;;
29412;SDS011;16389;50.126;8.450;2022-08-19T06:37:41;5.70;;;4.10;;
29412;SDS011;16389;50.126;8.450;2022-08-19T06:40:08;6.43;;;4.60;;
29412;SDS011;16389;50.126;8.450;2022-08-19T06:42:35;6.55;;;4.15;;
29412;SDS011;16389;50.126;8.450;2022-08-19T06:45:03;5.00;;;4.25;;
29412;SDS011;16389;50.126;8.450;2022-08-19T06:47:30;4.97;;;3.80;;
29412;SDS011;16389;50.126;8.450;2022-08-19T06:49:57;4.60;;;3.90;;
29412;SDS011;16389;50.126;8.450;2022-08-19T06:52:27;6.45;;;3.55;;
29412;SDS011;16389;50.126;8.450;2022-08-19T06:54:52;6.50;;;3.55;;
29412;SDS011;16389;50.126;8.450;2022-08-19T06:57:20;4.22;;;3.63;;
29412;SDS011;16389;50.126;8.450;2022-08-19T06:59:46;5.20;;;4.25;;
29412;SDS011;16389;50.126;8.450;2022-08-19T07:02:11;4.68;;;3.40;;
29412;SDS011;16389;50.126;8.450;2022-08-19T07:04:37;4.90;;;3.92;;
29412;SDS011;16389;50.126;8.450;2022-08-19T07:07:08;7.80;;;3.58;;
29412;SDS011;16389;50.126;8.450;2022-08-19T07:09:37;4.35;;;3.58;;
29412;SDS011;16389;50.126;8.450;2022-08-19T07:12:06;4.22;;;2.97;;
29412;SDS011;16389;50.126;8.450;2022-08-19T07:14:34;5.33;;;3.60;;
29412;SDS011;16389;50.126;8.450;2022-08-19T07:17:02;3.67;;;3.35;;
29412;SDS011;16389;50.126;8.450;2022-08-19T07:19:29;3.13;;;2.80;;
29412;SDS011;16389;50.126;8.450;2022-08-19T07:21:56;3.78;;;3.05;;
29412;SDS011;16389;50.126;8.450;2022-08-19T07:24:24;10.18;;;2.95;;
29412;SDS011;16389;50.126;8.450;2022-08-19T07:26:52;12.38;;;3.10;;
29412;SDS011;16389;50.126;8.450;2022-08-19T07:29:20;3.65;;;2.70;;
29412;SDS011;16389;50.126;8.450;2022-08-19T07:31:48;4.20;;;2.90;;
29412;SDS011;16389;50.126;8.450;2022-08-19T07:34:15;9.38;;;3.83;;
29412;SDS011;16389;50.126;8.450;2022-08-19T07:36:41;4.35;;;3.20;;
29412;SDS011;16389;50.126;8.450;2022-08-19T07:39:13;3.03;;;2.70;;
29412;SDS011;16389;50.126;8.450;2022-08-19T07:41:41;3.28;;;2.80;;
29412;SDS011;16389;50.126;8.450;2022-08-19T07:44:08;3.92;;;3.53;;
29412;SDS011;16389;50.126;8.450;2022-08-19T07:46:35;5.60;;;3.38;;
29412;SDS011;16389;50.126;8.450;2022-08-19T07:49:03;3.45;;;3.15;;
29412;SDS011;16389;50.126;8.450;2022-08-19T07:51:30;4.00;;;3.10;;
29412;SDS011;16389;50.126;8.450;2022-08-19T07:53:56;6.22;;;3.95;;
29412;SDS011;16389;50.126;8.450;2022-08-19T07:56:22;3.53;;;2.85;;
29412;SDS011;16389;50.126;8.450;2022-08-19T07:58:48;3.78;;;2.70;;
29412;SDS011;16389;50.126;8.450;2022-08-19T08:01:18;3.97;;;2.83;;
29412;SDS011;16389;50.126;8.450;2022-08-19T08:03:46;4.32;;;3.92;;
29412;SDS011;16389;50.126;8.450;2022-08-19T08:06:31;4.25;;;3.67;;
29412;SDS011;16389;50.126;8.450;2022-08-19T08:09:17;3.45;;;2.58;;
29412;SDS011;16389;50.126;8.450;2022-08-19T08:11:50;6.75;;;3.03;;
29412;SDS011;16389;50.126;8.450;2022-08-19T08:14:18;8.93;;;4.23;;
29412;SDS011;16389;50.126;8.450;2022-08-19T08:16:47;6.50;;;4.97;;
29412;SDS011;16389;50.126;8.450;2022-08-19T08:19:15;4.03;;;3.63;;
29412;SDS011;16389;50.126;8.450;2022-08-19T08:21:42;3.50;;;2.95;;
29412;SDS011;16389;50.126;8.450;2022-08-19T08:24:07;7.50;;;3.58;;
29412;SDS011;16389;50.126;8.450;2022-08-19T08:26:33;6.75;;;3.50;;
29412;SDS011;16389;50.126;8.450;2022-08-19T08:28:59;5.43;;;4.18;;
29412;SDS011;16389;50.126;8.450;2022-08-19T08:31:24;17.50;;;4.63;;
29412;SDS011;16389;50.126;8.450;2022-08-19T08:33:50;11.32;;;4.90;;
29412;SDS011;16389;50.126;8.450;2022-08-19T08:36:16;5.72;;;5.00;;
29412;SDS011;16389;50.126;8.450;2022-08-19T08:38:42;5.43;;;4.78;;
29412;SDS011;16389;50.126;8.450;2022-08-19T08:43:51;10.23;;;4.85;;
29412;SDS011;16389;50.126;8.450;2022-08-19T08:46:22;8.48;;;4.63;;
29412;SDS011;16389;50.126;8.450;2022-08-19T08:51:54;5.95;;;4.60;;
29412;SDS011;16389;50.126;8.450;2022-08-19T08:54:41;7.65;;;5.45;;
29412;SDS011;16389;50.126;8.450;2022-08-19T08:57:12;5.50;;;4.70;;
29412;SDS011;16389;50.126;8.450;2022-08-19T08:59:43;5.35;;;4.85;;
29412;SDS011;16389;50.126;8.450;2022-08-19T09:02:15;6.75;;;4.60;;
29412;SDS011;16389;50.126;8.450;2022-08-19T09:04:41;8.57;;;5.95;;
29412;SDS011;16389;50.126;8.450;2022-08-19T09:10:18;7.55;;;5.10;;
29412;SDS011;16389;50.126;8.450;2022-08-19T09:15:43;6.25;;;5.35;;
29412;SDS011;16389;50.126;8.450;2022-08-19T09:18:12;7.03;;;6.30;;
29412;SDS011;16389;50.126;8.450;2022-08-19T09:20:39;8.70;;;5.88;;
29412;SDS011;16389;50.126;8.450;2022-08-19T09:23:04;7.55;;;5.15;;
29412;SDS011;16389;50.126;8.450;2022-08-19T09:25:30;10.00;;;5.32;;
29412;SDS011;16389;50.126;8.450;2022-08-19T09:27:59;6.27;;;5.07;;
29412;SDS011;16389;50.126;8.450;2022-08-19T09:30:28;8.30;;;5.73;;
29412;SDS011;16389;50.126;8.450;2022-08-19T09:32:56;6.85;;;5.13;;
29412;SDS011;16389;50.126;8.450;2022-08-19T09:35:23;5.93;;;5.38;;
29412;SDS011;16389;50.126;8.450;2022-08-19T09:37:52;5.35;;;4.90;;
29412;SDS011;16389;50.126;8.450;2022-08-19T09:40:19;5.68;;;5.18;;
29412;SDS011;16389;50.126;8.450;2022-08-19T09:42:45;5.07;;;4.65;;
29412;SDS011;16389;50.126;8.450;2022-08-19T09:45:14;5.97;;;5.38;;
29412;SDS011;16389;50.126;8.450;2022-08-19T09:47:42;5.40;;;4.90;;
29412;SDS011;16389;50.126;8.450;2022-08-19T09:50:10;5.15;;;4.70;;
29412;SDS011;16389;50.126;8.450;2022-08-19T09:52:37;8.07;;;5.53;;
29412;SDS011;16389;50.126;8.450;2022-08-19T09:55:04;5.35;;;4.85;;
29412;SDS011;16389;50.126;8.450;2022-08-19T09:57:31;6.32;;;5.72;;
29412;SDS011;16389;50.126;8.450;2022-08-19T09:59:56;5.07;;;4.53;;
29412;SDS011;16389;50.126;8.450;2022-08-19T10:02:22;9.73;;;5.85;;
29412;SDS011;16389;50.126;8.450;2022-08-19T10:04:48;6.80;;;5.75;;
29412;SDS011;16389;50.126;8.450;2022-08-19T10:07:32;5.85;;;5.35;;
29412;SDS011;16389;50.126;8.450;2022-08-19T10:09:58;5.90;;;5.30;;
29412;SDS011;16389;50.126;8.450;2022-08-19T10:12:23;6.10;;;5.50;;
29412;SDS011;16389;50.126;8.450;2022-08-19T10:14:49;6.20;;;5.60;;
29412;SDS011;16389;50.126;8.450;2022-08-19T10:17:16;5.88;;;5.38;;
29412;SDS011;16389;50.126;8.450;2022-08-19T10:19:42;6.88;;;5.32;;
29412;SDS011;16389;50.126;8.450;2022-08-19T10:22:08;7.68;;;6.80;;
29412;SDS011;16389;50.126;8.450;2022-08-19T10:24:36;6.15;;;5.53;;
29412;SDS011;16389;50.126;8.450;2022-08-19T10:27:01;6.35;;;5.75;;
29412;SDS011;16389;50.126;8.450;2022-08-19T10:29:29;7.65;;;5.13;;
29412;SDS011;16389;50.126;8.450;2022-08-19T10:31:56;7.65;;;5.70;;
29412;SDS011;16389;50.126;8.450;2022-08-19T10:34:23;5.78;;;5.10;;
29412;SDS011;16389;50.126;8.450;2022-08-19T10:36:49;10.43;;;5.50;;
29412;SDS011;16389;50.126;8.450;2022-08-19T10:39:16;6.22;;;5.63;;
29412;SDS011;16389;50.126;8.450;2022-08-19T10:41:42;5.95;;;5.43;;
29412;SDS011;16389;50.126;8.450;2022-08-19T10:44:10;8.50;;;5.50;;
29412;SDS011;16389;50.126;8.450;2022-08-19T10:46:38;7.03;;;6.32;;
29412;SDS011;16389;50.126;8.450;2022-08-19T10:49:09;15.75;;;6.32;;
29412;SDS011;16389;50.126;8.450;2022-08-19T10:51:37;9.90;;;6.43;;
29412;SDS011;16389;50.126;8.450;2022-08-19T10:54:22;5.75;;;5.25;;
29412;SDS011;16389;50.126;8.450;2022-08-19T10:57:08;6.88;;;6.28;;
29412;SDS011;16389;50.126;8.450;2022-08-19T10:59:34;6.20;;;5.45;;
29412;SDS011;16389;50.126;8.450;2022-08-19T11:02:01;6.60;;;6.00;;
29412;SDS011;16389;50.126;8.450;2022-08-19T11:04:29;7.45;;;6.72;;
29412;SDS011;16389;50.126;8.450;2022-08-19T11:06:56;5.95;;;5.45;;
29412;SDS011;16389;50.126;8.450;2022-08-19T11:09:23;7.25;;;6.65;;
29412;SDS011;16389;50.126;8.450;2022-08-19T11:11:51;8.25;;;5.38;;
29412;SDS011;16389;50.126;8.450;2022-08-19T11:14:18;5.47;;;5.05;;
29412;SDS011;16389;50.126;8.450;2022-08-19T11:16:46;5.65;;;5.15;;
29412;SDS011;16389;50.126;8.450;2022-08-19T11:19:13;5.78;;;5.32;;
29412;SDS011;16389;50.126;8.450;2022-08-19T11:21:41;5.50;;;4.95;;
29412;SDS011;16389;50.126;8.450;2022-08-19T11:24:10;5.63;;;5.20;;
29412;SDS011;16389;50.126;8.450;2022-08-19T11:26:38;4.70;;;4.30;;
29412;SDS011;16389;50.126;8.450;2022-08-19T11:29:05;5.38;;;4.72;;
29412;SDS011;16389;50.126;8.450;2022-08-19T11:31:36;3.80;;;3.50;;
29412;SDS011;16389;50.126;8.450;2022-08-19T11:34:04;5.15;;;3.60;;
29412;SDS011;16389;50.126;8.450;2022-08-19T11:36:32;11.95;;;3.92;;
29412;SDS011;16389;50.126;8.450;2022-08-19T11:38:58;4.28;;;3.90;;
29412;SDS011;16389;50.126;8.450;2022-08-19T11:41:25;4.10;;;3.50;;
29412;SDS011;16389;50.126;8.450;2022-08-19T11:43:51;3.40;;;3.10;;
29412;SDS011;16389;50.126;8.450;2022-08-19T11:46:20;4.35;;;3.10;;
29412;SDS011;16389;50.126;8.450;2022-08-19T11:48:47;3.03;;;2.47;;
29412;SDS011;16389;50.126;8.450;2022-08-19T11:51:16;2.80;;;2.60;;
29412;SDS011;16389;50.126;8.450;2022-08-19T11:53:44;2.20;;;1.83;;
29412;SDS011;16389;50.126;8.450;2022-08-19T11:56:11;2.58;;;2.15;;
29412;SDS011;16389;50.126;8.450;2022-08-19T11:58:37;2.28;;;2.00;;
29412;SDS011;16389;50.126;8.450;2022-08-19T12:01:07;2.28;;;2.08;;
29412;SDS011;16389;50.126;8.450;2022-08-19T12:03:34;2.60;;;2.40;;
29412;SDS011;16389;50.126;8.450;2022-08-19T12:06:07;5.63;;;2.05;;
29412;SDS011;16389;50.126;8.450;2022-08-19T12:08:34;2.30;;;2.10;;
29412;SDS011;16389;50.126;8.450;2022-08-19T12:11:00;11.45;;;2.30;;
29412;SDS011;16389;50.126;8.450;2022-08-19T12:13:27;2.92;;;2.65;;
29412;SDS011;16389;50.126;8.450;2022-08-19T12:15:55;2.53;;;2.33;;
29412;SDS011;16389;50.126;8.450;2022-08-19T12:18:22;3.38;;;2.22;;
29412;SDS011;16389;50.126;8.450;2022-08-19T12:20:50;2.88;;;2.05;;
29412;SDS011;16389;50.126;8.450;2022-08-19T12:23:17;2.60;;;2.40;;
29412;SDS011;16389;50.126;8.450;2022-08-19T12:25:44;2.53;;;2.33;;
29412;SDS011;16389;50.126;8.450;2022-08-19T12:28:20;2.15;;;2.05;;
29412;SDS011;16389;50.126;8.450;2022-08-19T12:30:47;2.65;;;2.45;;
29412;SDS011;16389;50.126;8.450;2022-08-19T12:33:15;2.30;;;2.20;;
29412;SDS011;16389;50.126;8.450;2022-08-19T12:35:42;4.50;;;2.00;;
29412;SDS011;16389;50.126;8.450;2022-08-19T12:38:11;2.05;;;1.90;;
29412;SDS011;16389;50.126;8.450;2022-08-19T12:40:38;2.33;;;2.13;;
29412;SDS011;16389;50.126;8.450;2022-08-19T12:43:05;1.88;;;1.77;;
29412;SDS011;16389;50.126;8.450;2022-08-19T12:45:32;2.13;;;1.92;;
29412;SDS011;16389;50.126;8.450;2022-08-19T12:47:58;1.98;;;1.88;;
29412;SDS011;16389;50.126;8.450;2022-08-19T12:50:24;2.42;;;2.03;;
29412;SDS011;16389;50.126;8.450;2022-08-19T12:52:50;2.28;;;2.08;;
29412;SDS011;16389;50.126;8.450;2022-08-19T12:55:15;1.98;;;1.88;;
29412;SDS011;16389;50.126;8.450;2022-08-19T12:57:43;7.82;;;1.90;;
29412;SDS011;16389;50.126;8.450;2022-08-19T13:00:11;8.13;;;1.77;;
29412;SDS011;16389;50.126;8.450;2022-08-19T13:02:42;1.63;;;1.52;;
29412;SDS011;16389;50.126;8.450;2022-08-19T13:05:10;1.60;;;1.50;;
29412;SDS011;16389;50.126;8.450;2022-08-19T13:07:41;2.08;;;1.63;;
29412;SDS011;16389;50.126;8.450;2022-08-19T13:10:09;2.08;;;1.60;;
29412;SDS011;16389;50.126;8.450;2022-08-19T13:12:37;2.08;;;1.75;;
29412;SDS011;16389;50.126;8.450;2022-08-19T13:15:03;2.10;;;1.90;;
29412;SDS011;16389;50.126;8.450;2022-08-19T13:17:29;1.55;;;1.45;;
29412;SDS011;16389;50.126;8.450;2022-08-19T13:19:54;1.60;;;1.50;;
29412;SDS011;16389;50.126;8.450;2022-08-19T13:22:20;1.80;;;1.70;;
29412;SDS011;16389;50.126;8.450;2022-08-19T13:24:46;1.70;;;1.60;;
29412;SDS011;16389;50.126;8.450;2022-08-19T13:27:11;3.10;;;1.55;;
29412;SDS011;16389;50.126;8.450;2022-08-19T13:29:39;7.53;;;1.90;;
29412;SDS011;16389;50.126;8.450;2022-08-19T13:32:24;1.63;;;1.52;;
29412;SDS011;16389;50.126;8.450;2022-08-19T13:35:08;1.50;;;1.40;;
29412;SDS011;16389;50.126;8.450;2022-08-19T13:37:34;2.58;;;1.60;;
29412;SDS011;16389;50.126;8.450;2022-08-19T13:40:10;1.60;;;1.50;;
29412;SDS011;16389;50.126;8.450;2022-08-19T13:42:40;3.08;;;1.20;;
29412;SDS011;16389;50.126;8.450;2022-08-19T13:45:07;2.03;;;1.83;;
29412;SDS011;16389;50.126;8.450;2022-08-19T13:47:34;2.95;;;1.50;;
29412;SDS011;16389;50.126;8.450;2022-08-19T13:50:01;1.60;;;1.50;;
29412;SDS011;16389;50.126;8.450;2022-08-19T13:52:28;1.58;;;1.48;;
29412;SDS011;16389;50.126;8.450;2022-08-19T13:54:54;2.20;;;2.00;;
29412;SDS011;16389;50.126;8.450;2022-08-19T13:57:19;1.88;;;1.67;;
29412;SDS011;16389;50.126;8.450;2022-08-19T13:59:45;2.13;;;1.60;;
29412;SDS011;16389;50.126;8.450;2022-08-19T14:02:11;1.60;;;1.45;;
29412;SDS011;16389;50.126;8.450;2022-08-19T14:04:36;2.50;;;1.70;;
29412;SDS011;16389;50.126;8.450;2022-08-19T14:07:02;2.03;;;1.73;;
29412;SDS011;16389;50.126;8.450;2022-08-19T14:09:28;1.75;;;1.63;;
29412;SDS011;16389;50.126;8.450;2022-08-19T14:11:54;3.30;;;1.60;;
29412;SDS011;16389;50.126;8.450;2022-08-19T14:14:20;2.58;;;2.40;;
29412;SDS011;16389;50.126;8.450;2022-08-19T14:16:46;2.15;;;1.95;;
29412;SDS011;16389;50.126;8.450;2022-08-19T14:19:13;2.88;;;2.00;;
29412;SDS011;16389;50.126;8.450;2022-08-19T14:21:38;2.05;;;1.92;;
29412;SDS011;16389;50.126;8.450;2022-08-19T14:24:06;2.33;;;2.10;;
29412;SDS011;16389;50.126;8.450;2022-08-19T14:26:33;3.80;;;1.85;;
29412;SDS011;16389;50.126;8.450;2022-08-19T14:28:59;2.15;;;1.95;;
29412;SDS011;16389;50.126;8.450;2022-08-19T14:31:26;1.92;;;1.83;;
29412;SDS011;16389;50.126;8.450;2022-08-19T14:33:52;6.78;;;2.05;;
29412;SDS011;16389;50.126;8.450;2022-08-19T14:36:18;2.22;;;1.95;;
29412;SDS011;16389;50.126;8.450;2022-08-19T14:38:45;1.85;;;1.75;;
29412;SDS011;16389;50.126;8.450;2022-08-19T14:41:12;2.03;;;1.92;;
29412;SDS011;16389;50.126;8.450;2022-08-19T14:43:44;1.70;;;1.60;;
29412;SDS011;16389;50.126;8.450;2022-08-19T14:46:12;1.48;;;1.38;;
29412;SDS011;16389;50.126;8.450;2022-08-19T14:48:39;2.15;;;2.05;;
29412;SDS011;16389;50.126;8.450;2022-08-19T14:51:05;2.65;;;1.30;;
29412;SDS011;16389;50.126;8.450;2022-08-19T14:53:32;3.47;;;1.70;;
29412;SDS011;16389;50.126;8.450;2022-08-19T14:55:58;2.75;;;1.52;;
29412;SDS011;16389;50.126;8.450;2022-08-19T14:58:25;1.70;;;1.60;;
29412;SDS011;16389;50.126;8.450;2022-08-19T15:00:52;2.83;;;1.70;;
29412;SDS011;16389;50.126;8.450;2022-08-19T15:03:17;2.58;;;1.75;;
29412;SDS011;16389;50.126;8.450;2022-08-19T15:05:43;2.78;;;1.80;;
29412;SDS011;16389;50.126;8.450;2022-08-19T15:08:09;2.40;;;1.48;;
29412;SDS011;16389;50.126;8.450;2022-08-19T15:10:35;2.13;;;1.92;;
29412;SDS011;16389;50.126;8.450;2022-08-19T15:13:02;2.30;;;2.08;;
29412;SDS011;16389;50.126;8.450;2022-08-19T15:15:28;2.55;;;2.33;;